X  CloseMetar Aviation Weather Data     EGNS Isle of Man

Temperature

8°C Temp

8°C Dewpoint

100% Humidity



Wind

 2 KM/H

 1 MPH

 0 M/S

 1 KTS



Calm
Due North
Current Conditions

Mist Mist
Pressure 1016.92 (hPa) - 30.03 (in)
Visibility 2.5 (mi) - 4 (km)
Airport
Airport-code EGNS

Location Isle of Man 100 (km)

Metar:
EGNS 010750Z VRB01KT 4000 BR FEW004 BKN005 OVC030 08/08 Q1017 NOSIG

Time: 01-03-2019 08:50